sensor_id;sensor_type;location;lat;lon;timestamp;P1;durP1;ratioP1;P2;durP2;ratioP2
47251;SDS011;32991;51.374;11.586;2023-09-19T00:01:42;3.65;;;2.10;;
47251;SDS011;32991;51.374;11.586;2023-09-19T00:04:12;3.88;;;2.10;;
47251;SDS011;32991;51.374;11.586;2023-09-19T00:06:41;2.53;;;2.10;;
47251;SDS011;32991;51.374;11.586;2023-09-19T00:09:09;3.20;;;1.83;;
47251;SDS011;32991;51.374;11.586;2023-09-19T00:11:38;6.15;;;2.13;;
47251;SDS011;32991;51.374;11.586;2023-09-19T00:14:05;3.47;;;1.77;;
47251;SDS011;32991;51.374;11.586;2023-09-19T00:16:34;3.83;;;2.08;;
47251;SDS011;32991;51.374;11.586;2023-09-19T00:19:00;3.35;;;1.83;;
47251;SDS011;32991;51.374;11.586;2023-09-19T00:21:27;3.60;;;1.80;;
47251;SDS011;32991;51.374;11.586;2023-09-19T00:23:54;4.63;;;2.00;;
47251;SDS011;32991;51.374;11.586;2023-09-19T00:26:21;2.95;;;2.10;;
47251;SDS011;32991;51.374;11.586;2023-09-19T00:28:48;3.50;;;2.13;;
47251;SDS011;32991;51.374;11.586;2023-09-19T00:31:18;2.95;;;2.08;;
47251;SDS011;32991;51.374;11.586;2023-09-19T00:33:45;3.22;;;1.90;;
47251;SDS011;32991;51.374;11.586;2023-09-19T00:36:12;5.95;;;2.47;;
47251;SDS011;32991;51.374;11.586;2023-09-19T00:38:38;5.20;;;2.40;;
47251;SDS011;32991;51.374;11.586;2023-09-19T00:41:05;3.35;;;2.45;;
47251;SDS011;32991;51.374;11.586;2023-09-19T00:43:34;2.88;;;1.85;;
47251;SDS011;32991;51.374;11.586;2023-09-19T00:46:01;7.47;;;2.47;;
47251;SDS011;32991;51.374;11.586;2023-09-19T00:48:30;2.58;;;2.20;;
47251;SDS011;32991;51.374;11.586;2023-09-19T00:50:58;2.55;;;1.95;;
47251;SDS011;32991;51.374;11.586;2023-09-19T00:53:28;4.25;;;2.13;;
47251;SDS011;32991;51.374;11.586;2023-09-19T00:55:57;2.40;;;1.45;;
47251;SDS011;32991;51.374;11.586;2023-09-19T00:58:23;4.72;;;2.15;;
47251;SDS011;32991;51.374;11.586;2023-09-19T01:00:50;3.35;;;2.05;;
47251;SDS011;32991;51.374;11.586;2023-09-19T01:03:17;3.53;;;1.88;;
47251;SDS011;32991;51.374;11.586;2023-09-19T01:05:45;4.35;;;1.85;;
47251;SDS011;32991;51.374;11.586;2023-09-19T01:08:11;3.10;;;1.77;;
47251;SDS011;32991;51.374;11.586;2023-09-19T01:10:40;1.75;;;1.63;;
47251;SDS011;32991;51.374;11.586;2023-09-19T01:13:29;5.47;;;2.20;;
47251;SDS011;32991;51.374;11.586;2023-09-19T01:16:11;4.53;;;1.90;;
47251;SDS011;32991;51.374;11.586;2023-09-19T01:19:02;4.97;;;2.25;;
47251;SDS011;32991;51.374;11.586;2023-09-19T01:21:39;4.05;;;1.90;;
47251;SDS011;32991;51.374;11.586;2023-09-19T01:29:47;3.72;;;1.90;;
47251;SDS011;32991;51.374;11.586;2023-09-19T01:32:18;4.13;;;2.05;;
47251;SDS011;32991;51.374;11.586;2023-09-19T01:34:54;4.18;;;1.70;;
47251;SDS011;32991;51.374;11.586;2023-09-19T01:37:30;3.47;;;1.70;;
47251;SDS011;32991;51.374;11.586;2023-09-19T01:40:07;5.80;;;1.50;;
47251;SDS011;32991;51.374;11.586;2023-09-19T01:42:58;3.35;;;1.95;;
47251;SDS011;32991;51.374;11.586;2023-09-19T01:50:59;4.43;;;1.77;;
47251;SDS011;32991;51.374;11.586;2023-09-19T01:53:28;4.80;;;1.90;;
47251;SDS011;32991;51.374;11.586;2023-09-19T01:56:25;2.88;;;1.63;;
47251;SDS011;32991;51.374;11.586;2023-09-19T01:58:59;3.10;;;1.60;;
47251;SDS011;32991;51.374;11.586;2023-09-19T02:01:30;2.53;;;1.85;;
47251;SDS011;32991;51.374;11.586;2023-09-19T02:03:57;5.53;;;1.75;;
47251;SDS011;32991;51.374;11.586;2023-09-19T02:06:24;2.47;;;1.60;;
47251;SDS011;32991;51.374;11.586;2023-09-19T02:08:51;2.42;;;1.50;;
47251;SDS011;32991;51.374;11.586;2023-09-19T02:11:18;4.38;;;1.48;;
47251;SDS011;32991;51.374;11.586;2023-09-19T02:13:45;3.20;;;1.88;;
47251;SDS011;32991;51.374;11.586;2023-09-19T02:16:12;3.05;;;1.90;;
47251;SDS011;32991;51.374;11.586;2023-09-19T02:18:39;6.10;;;1.90;;
47251;SDS011;32991;51.374;11.586;2023-09-19T02:21:06;1.98;;;1.77;;
47251;SDS011;32991;51.374;11.586;2023-09-19T02:23:39;1.67;;;1.58;;
47251;SDS011;32991;51.374;11.586;2023-09-19T02:26:06;2.45;;;1.80;;
47251;SDS011;32991;51.374;11.586;2023-09-19T02:28:33;2.90;;;1.67;;
47251;SDS011;32991;51.374;11.586;2023-09-19T02:31:00;3.42;;;1.70;;
47251;SDS011;32991;51.374;11.586;2023-09-19T02:33:28;4.30;;;2.00;;
47251;SDS011;32991;51.374;11.586;2023-09-19T02:35:59;3.67;;;1.70;;
47251;SDS011;32991;51.374;11.586;2023-09-19T02:38:26;2.35;;;1.30;;
47251;SDS011;32991;51.374;11.586;2023-09-19T02:40:53;3.33;;;1.70;;
47251;SDS011;32991;51.374;11.586;2023-09-19T02:43:21;3.53;;;1.70;;
47251;SDS011;32991;51.374;11.586;2023-09-19T02:45:49;1.50;;;1.33;;
47251;SDS011;32991;51.374;11.586;2023-09-19T02:48:16;2.35;;;1.60;;
47251;SDS011;32991;51.374;11.586;2023-09-19T02:50:43;2.20;;;1.58;;
47251;SDS011;32991;51.374;11.586;2023-09-19T02:53:10;3.75;;;1.95;;
47251;SDS011;32991;51.374;11.586;2023-09-19T02:55:39;2.38;;;2.03;;
47251;SDS011;32991;51.374;11.586;2023-09-19T02:58:07;2.83;;;1.85;;
47251;SDS011;32991;51.374;11.586;2023-09-19T03:00:41;3.35;;;2.03;;
47251;SDS011;32991;51.374;11.586;2023-09-19T03:03:14;3.42;;;1.90;;
47251;SDS011;32991;51.374;11.586;2023-09-19T03:05:43;2.17;;;1.60;;
47251;SDS011;32991;51.374;11.586;2023-09-19T03:08:15;4.05;;;1.80;;
47251;SDS011;32991;51.374;11.586;2023-09-19T03:10:48;2.80;;;1.77;;
47251;SDS011;32991;51.374;11.586;2023-09-19T03:13:15;3.00;;;1.67;;
47251;SDS011;32991;51.374;11.586;2023-09-19T03:15:42;3.38;;;1.60;;
47251;SDS011;32991;51.374;11.586;2023-09-19T03:18:16;2.45;;;1.70;;
47251;SDS011;32991;51.374;11.586;2023-09-19T03:20:43;3.95;;;2.22;;
47251;SDS011;32991;51.374;11.586;2023-09-19T03:23:10;3.67;;;1.73;;
47251;SDS011;32991;51.374;11.586;2023-09-19T03:25:37;2.33;;;1.55;;
47251;SDS011;32991;51.374;11.586;2023-09-19T03:28:04;4.07;;;1.60;;
47251;SDS011;32991;51.374;11.586;2023-09-19T03:30:34;2.55;;;1.50;;
47251;SDS011;32991;51.374;11.586;2023-09-19T03:33:03;4.15;;;1.55;;
47251;SDS011;32991;51.374;11.586;2023-09-19T03:35:32;3.22;;;1.58;;
47251;SDS011;32991;51.374;11.586;2023-09-19T03:37:59;4.20;;;1.70;;
47251;SDS011;32991;51.374;11.586;2023-09-19T03:40:27;5.53;;;1.58;;
47251;SDS011;32991;51.374;11.586;2023-09-19T03:42:54;2.22;;;1.60;;
47251;SDS011;32991;51.374;11.586;2023-09-19T03:45:21;2.33;;;1.40;;
47251;SDS011;32991;51.374;11.586;2023-09-19T03:47:51;1.55;;;1.30;;
47251;SDS011;32991;51.374;11.586;2023-09-19T03:50:21;2.97;;;1.58;;
47251;SDS011;32991;51.374;11.586;2023-09-19T03:52:49;2.85;;;1.85;;
47251;SDS011;32991;51.374;11.586;2023-09-19T03:55:16;1.63;;;1.40;;
47251;SDS011;32991;51.374;11.586;2023-09-19T03:57:47;2.70;;;1.25;;
47251;SDS011;32991;51.374;11.586;2023-09-19T04:00:15;2.08;;;1.42;;
47251;SDS011;32991;51.374;11.586;2023-09-19T04:02:48;2.90;;;1.58;;
47251;SDS011;32991;51.374;11.586;2023-09-19T04:05:15;2.40;;;1.38;;
47251;SDS011;32991;51.374;11.586;2023-09-19T04:07:43;3.40;;;1.52;;
47251;SDS011;32991;51.374;11.586;2023-09-19T04:10:10;1.50;;;1.40;;
47251;SDS011;32991;51.374;11.586;2023-09-19T04:12:38;5.22;;;1.45;;
47251;SDS011;32991;51.374;11.586;2023-09-19T04:15:06;2.63;;;1.58;;
47251;SDS011;32991;51.374;11.586;2023-09-19T04:17:33;4.65;;;1.85;;
47251;SDS011;32991;51.374;11.586;2023-09-19T04:20:00;3.47;;;1.73;;
47251;SDS011;32991;51.374;11.586;2023-09-19T04:22:27;1.95;;;1.40;;
47251;SDS011;32991;51.374;11.586;2023-09-19T04:24:53;1.98;;;1.40;;
47251;SDS011;32991;51.374;11.586;2023-09-19T04:27:20;1.52;;;1.40;;
47251;SDS011;32991;51.374;11.586;2023-09-19T04:29:47;3.80;;;1.60;;
47251;SDS011;32991;51.374;11.586;2023-09-19T04:32:14;3.40;;;1.63;;
47251;SDS011;32991;51.374;11.586;2023-09-19T04:34:42;2.15;;;1.30;;
47251;SDS011;32991;51.374;11.586;2023-09-19T04:37:09;2.38;;;1.52;;
47251;SDS011;32991;51.374;11.586;2023-09-19T04:39:37;4.78;;;1.90;;
47251;SDS011;32991;51.374;11.586;2023-09-19T04:42:04;3.58;;;1.67;;
47251;SDS011;32991;51.374;11.586;2023-09-19T04:44:31;2.20;;;1.67;;
47251;SDS011;32991;51.374;11.586;2023-09-19T04:46:57;2.55;;;1.77;;
47251;SDS011;32991;51.374;11.586;2023-09-19T04:49:26;3.67;;;1.75;;
47251;SDS011;32991;51.374;11.586;2023-09-19T04:51:52;1.88;;;1.30;;
47251;SDS011;32991;51.374;11.586;2023-09-19T04:54:19;3.28;;;1.65;;
47251;SDS011;32991;51.374;11.586;2023-09-19T04:56:45;2.38;;;1.25;;
47251;SDS011;32991;51.374;11.586;2023-09-19T04:59:12;2.75;;;1.65;;
47251;SDS011;32991;51.374;11.586;2023-09-19T05:01:39;3.88;;;1.70;;
47251;SDS011;32991;51.374;11.586;2023-09-19T05:04:06;2.15;;;1.73;;
47251;SDS011;32991;51.374;11.586;2023-09-19T05:06:32;3.38;;;1.60;;
47251;SDS011;32991;51.374;11.586;2023-09-19T05:09:00;2.40;;;1.70;;
47251;SDS011;32991;51.374;11.586;2023-09-19T05:11:26;1.98;;;1.30;;
47251;SDS011;32991;51.374;11.586;2023-09-19T05:13:56;2.40;;;1.40;;
47251;SDS011;32991;51.374;11.586;2023-09-19T05:16:23;2.03;;;1.55;;
47251;SDS011;32991;51.374;11.586;2023-09-19T05:18:50;2.08;;;1.58;;
47251;SDS011;32991;51.374;11.586;2023-09-19T05:21:17;2.53;;;1.60;;
47251;SDS011;32991;51.374;11.586;2023-09-19T05:23:44;6.97;;;1.65;;
47251;SDS011;32991;51.374;11.586;2023-09-19T05:26:11;2.70;;;1.48;;
47251;SDS011;32991;51.374;11.586;2023-09-19T05:28:38;2.33;;;1.27;;
47251;SDS011;32991;51.374;11.586;2023-09-19T05:31:05;3.50;;;1.60;;
47251;SDS011;32991;51.374;11.586;2023-09-19T05:33:32;2.35;;;1.40;;
47251;SDS011;32991;51.374;11.586;2023-09-19T05:35:59;2.13;;;1.42;;
47251;SDS011;32991;51.374;11.586;2023-09-19T05:38:26;6.05;;;1.25;;
47251;SDS011;32991;51.374;11.586;2023-09-19T05:40:54;3.17;;;1.35;;
47251;SDS011;32991;51.374;11.586;2023-09-19T05:43:20;3.35;;;1.27;;
47251;SDS011;32991;51.374;11.586;2023-09-19T05:45:48;1.83;;;1.30;;
47251;SDS011;32991;51.374;11.586;2023-09-19T05:48:15;2.47;;;1.20;;
47251;SDS011;32991;51.374;11.586;2023-09-19T05:50:47;3.22;;;1.35;;
47251;SDS011;32991;51.374;11.586;2023-09-19T05:53:15;3.47;;;1.50;;
47251;SDS011;32991;51.374;11.586;2023-09-19T05:55:42;1.40;;;1.30;;
47251;SDS011;32991;51.374;11.586;2023-09-19T05:58:09;2.28;;;1.20;;
47251;SDS011;32991;51.374;11.586;2023-09-19T06:00:36;4.80;;;1.42;;
47251;SDS011;32991;51.374;11.586;2023-09-19T06:03:05;5.00;;;1.38;;
47251;SDS011;32991;51.374;11.586;2023-09-19T06:05:32;3.47;;;1.27;;
47251;SDS011;32991;51.374;11.586;2023-09-19T06:07:58;2.67;;;1.52;;
47251;SDS011;32991;51.374;11.586;2023-09-19T06:10:35;1.55;;;1.00;;
47251;SDS011;32991;51.374;11.586;2023-09-19T06:13:02;3.80;;;1.33;;
47251;SDS011;32991;51.374;11.586;2023-09-19T06:15:32;2.75;;;1.63;;
47251;SDS011;32991;51.374;11.586;2023-09-19T06:17:59;3.28;;;1.23;;
47251;SDS011;32991;51.374;11.586;2023-09-19T06:20:28;1.38;;;1.20;;
47251;SDS011;32991;51.374;11.586;2023-09-19T06:22:56;3.90;;;1.40;;
47251;SDS011;32991;51.374;11.586;2023-09-19T06:25:23;2.75;;;1.40;;
47251;SDS011;32991;51.374;11.586;2023-09-19T06:27:50;2.90;;;1.45;;
47251;SDS011;32991;51.374;11.586;2023-09-19T06:30:23;4.05;;;1.48;;
47251;SDS011;32991;51.374;11.586;2023-09-19T06:32:55;2.20;;;1.13;;
47251;SDS011;32991;51.374;11.586;2023-09-19T06:35:22;4.63;;;1.50;;
47251;SDS011;32991;51.374;11.586;2023-09-19T06:37:49;4.57;;;1.60;;
47251;SDS011;32991;51.374;11.586;2023-09-19T06:40:17;3.20;;;1.35;;
47251;SDS011;32991;51.374;11.586;2023-09-19T06:42:51;2.42;;;1.40;;
47251;SDS011;32991;51.374;11.586;2023-09-19T06:45:19;4.28;;;1.38;;
47251;SDS011;32991;51.374;11.586;2023-09-19T06:47:48;3.42;;;1.40;;
47251;SDS011;32991;51.374;11.586;2023-09-19T06:50:20;3.83;;;1.50;;
47251;SDS011;32991;51.374;11.586;2023-09-19T06:52:50;5.55;;;1.90;;
47251;SDS011;32991;51.374;11.586;2023-09-19T06:55:18;5.50;;;1.60;;
47251;SDS011;32991;51.374;11.586;2023-09-19T06:57:47;4.03;;;1.70;;
47251;SDS011;32991;51.374;11.586;2023-09-19T07:00:14;3.97;;;1.45;;
47251;SDS011;32991;51.374;11.586;2023-09-19T07:02:45;6.10;;;1.90;;
47251;SDS011;32991;51.374;11.586;2023-09-19T07:05:11;2.97;;;1.52;;
47251;SDS011;32991;51.374;11.586;2023-09-19T07:07:38;3.90;;;1.55;;
47251;SDS011;32991;51.374;11.586;2023-09-19T07:10:06;3.90;;;1.67;;
47251;SDS011;32991;51.374;11.586;2023-09-19T07:12:34;2.90;;;1.60;;
47251;SDS011;32991;51.374;11.586;2023-09-19T07:15:01;2.58;;;1.50;;
47251;SDS011;32991;51.374;11.586;2023-09-19T07:17:28;4.03;;;1.67;;
47251;SDS011;32991;51.374;11.586;2023-09-19T07:19:56;2.45;;;1.35;;
47251;SDS011;32991;51.374;11.586;2023-09-19T07:22:25;4.18;;;1.50;;
47251;SDS011;32991;51.374;11.586;2023-09-19T07:24:53;6.22;;;2.10;;
47251;SDS011;32991;51.374;11.586;2023-09-19T07:27:19;4.35;;;1.50;;
47251;SDS011;32991;51.374;11.586;2023-09-19T07:29:46;5.35;;;1.75;;
47251;SDS011;32991;51.374;11.586;2023-09-19T07:32:16;5.70;;;1.60;;
47251;SDS011;32991;51.374;11.586;2023-09-19T07:34:43;3.97;;;1.80;;
47251;SDS011;32991;51.374;11.586;2023-09-19T07:37:11;3.13;;;1.65;;
47251;SDS011;32991;51.374;11.586;2023-09-19T07:39:39;3.25;;;1.40;;
47251;SDS011;32991;51.374;11.586;2023-09-19T07:42:07;5.15;;;1.77;;
47251;SDS011;32991;51.374;11.586;2023-09-19T07:44:37;3.63;;;1.50;;
47251;SDS011;32991;51.374;11.586;2023-09-19T07:47:04;2.00;;;1.20;;
47251;SDS011;32991;51.374;11.586;2023-09-19T07:49:30;5.55;;;1.80;;
47251;SDS011;32991;51.374;11.586;2023-09-19T07:51:57;5.13;;;1.50;;
47251;SDS011;32991;51.374;11.586;2023-09-19T07:54:25;2.28;;;1.45;;
47251;SDS011;32991;51.374;11.586;2023-09-19T07:56:53;3.70;;;1.48;;
47251;SDS011;32991;51.374;11.586;2023-09-19T07:59:20;4.85;;;1.80;;
47251;SDS011;32991;51.374;11.586;2023-09-19T08:01:47;7.55;;;1.92;;
47251;SDS011;32991;51.374;11.586;2023-09-19T08:04:14;6.55;;;1.58;;
47251;SDS011;32991;51.374;11.586;2023-09-19T08:06:41;2.90;;;1.77;;
47251;SDS011;32991;51.374;11.586;2023-09-19T08:09:07;3.60;;;1.40;;
47251;SDS011;32991;51.374;11.586;2023-09-19T08:11:37;2.75;;;1.48;;
47251;SDS011;32991;51.374;11.586;2023-09-19T08:14:03;2.88;;;1.50;;
47251;SDS011;32991;51.374;11.586;2023-09-19T08:16:32;3.78;;;1.60;;
47251;SDS011;32991;51.374;11.586;2023-09-19T08:18:59;3.20;;;1.35;;
47251;SDS011;32991;51.374;11.586;2023-09-19T08:21:26;2.97;;;1.48;;
47251;SDS011;32991;51.374;11.586;2023-09-19T08:23:55;3.13;;;1.55;;
47251;SDS011;32991;51.374;11.586;2023-09-19T08:26:23;4.97;;;1.70;;
47251;SDS011;32991;51.374;11.586;2023-09-19T08:28:50;2.45;;;1.35;;
47251;SDS011;32991;51.374;11.586;2023-09-19T08:31:17;3.25;;;1.60;;
47251;SDS011;32991;51.374;11.586;2023-09-19T08:33:44;4.35;;;1.48;;
47251;SDS011;32991;51.374;11.586;2023-09-19T08:36:15;4.40;;;1.63;;
47251;SDS011;32991;51.374;11.586;2023-09-19T08:38:42;3.72;;;1.55;;
47251;SDS011;32991;51.374;11.586;2023-09-19T08:41:08;4.22;;;1.70;;
47251;SDS011;32991;51.374;11.586;2023-09-19T08:43:35;3.72;;;1.48;;
47251;SDS011;32991;51.374;11.586;2023-09-19T08:46:10;3.67;;;1.70;;
47251;SDS011;32991;51.374;11.586;2023-09-19T08:48:54;3.28;;;1.65;;
47251;SDS011;32991;51.374;11.586;2023-09-19T08:51:27;2.55;;;1.67;;
47251;SDS011;32991;51.374;11.586;2023-09-19T08:56:33;4.50;;;2.13;;
47251;SDS011;32991;51.374;11.586;2023-09-19T08:59:02;6.15;;;2.13;;
47251;SDS011;32991;51.374;11.586;2023-09-19T09:01:31;3.20;;;1.85;;
47251;SDS011;32991;51.374;11.586;2023-09-19T09:03:59;4.07;;;1.88;;
47251;SDS011;32991;51.374;11.586;2023-09-19T09:06:25;3.42;;;1.58;;
47251;SDS011;32991;51.374;11.586;2023-09-19T09:08:54;7.32;;;1.92;;
47251;SDS011;32991;51.374;11.586;2023-09-19T09:11:21;3.38;;;1.80;;
47251;SDS011;32991;51.374;11.586;2023-09-19T09:13:49;3.08;;;1.90;;
47251;SDS011;32991;51.374;11.586;2023-09-19T09:16:16;4.03;;;1.75;;
47251;SDS011;32991;51.374;11.586;2023-09-19T09:18:46;4.55;;;1.80;;
47251;SDS011;32991;51.374;11.586;2023-09-19T09:21:20;4.18;;;2.33;;
47251;SDS011;32991;51.374;11.586;2023-09-19T09:23:48;5.00;;;1.48;;
47251;SDS011;32991;51.374;11.586;2023-09-19T09:26:22;5.60;;;1.92;;
47251;SDS011;32991;51.374;11.586;2023-09-19T09:29:09;6.45;;;1.67;;
47251;SDS011;32991;51.374;11.586;2023-09-19T09:31:35;3.83;;;1.80;;
47251;SDS011;32991;51.374;11.586;2023-09-19T09:34:04;4.90;;;1.85;;
47251;SDS011;32991;51.374;11.586;2023-09-19T09:36:40;4.00;;;1.80;;
47251;SDS011;32991;51.374;11.586;2023-09-19T09:39:08;3.78;;;1.60;;
47251;SDS011;32991;51.374;11.586;2023-09-19T09:41:51;5.63;;;1.98;;
47251;SDS011;32991;51.374;11.586;2023-09-19T09:44:18;2.50;;;1.52;;
47251;SDS011;32991;51.374;11.586;2023-09-19T09:46:46;7.57;;;1.77;;
47251;SDS011;32991;51.374;11.586;2023-09-19T09:49:22;6.82;;;1.75;;
47251;SDS011;32991;51.374;11.586;2023-09-19T09:54:34;4.55;;;1.88;;
47251;SDS011;32991;51.374;11.586;2023-09-19T09:57:05;5.57;;;1.95;;
47251;SDS011;32991;51.374;11.586;2023-09-19T09:59:47;4.88;;;2.00;;
47251;SDS011;32991;51.374;11.586;2023-09-19T10:02:30;3.75;;;1.50;;
47251;SDS011;32991;51.374;11.586;2023-09-19T10:05:14;2.72;;;1.50;;
47251;SDS011;32991;51.374;11.586;2023-09-19T10:07:49;6.35;;;1.75;;
47251;SDS011;32991;51.374;11.586;2023-09-19T10:13:14;4.22;;;1.90;;
47251;SDS011;32991;51.374;11.586;2023-09-19T10:15:48;4.68;;;1.90;;
47251;SDS011;32991;51.374;11.586;2023-09-19T10:18:19;2.67;;;1.52;;
47251;SDS011;32991;51.374;11.586;2023-09-19T10:20:47;4.32;;;1.60;;
47251;SDS011;32991;51.374;11.586;2023-09-19T10:23:16;4.47;;;2.22;;
47251;SDS011;32991;51.374;11.586;2023-09-19T10:25:49;7.97;;;2.17;;
47251;SDS011;32991;51.374;11.586;2023-09-19T10:28:16;4.90;;;2.28;;
47251;SDS011;32991;51.374;11.586;2023-09-19T10:30:49;3.85;;;1.70;;
47251;SDS011;32991;51.374;11.586;2023-09-19T10:33:24;3.90;;;1.90;;
47251;SDS011;32991;51.374;11.586;2023-09-19T10:35:53;3.92;;;1.73;;
47251;SDS011;32991;51.374;11.586;2023-09-19T10:38:23;7.85;;;1.85;;
47251;SDS011;32991;51.374;11.586;2023-09-19T10:40:52;5.28;;;1.77;;
47251;SDS011;32991;51.374;11.586;2023-09-19T10:43:20;5.20;;;1.70;;
47251;SDS011;32991;51.374;11.586;2023-09-19T10:45:48;4.00;;;2.00;;
47251;SDS011;32991;51.374;11.586;2023-09-19T10:48:16;6.15;;;2.08;;
47251;SDS011;32991;51.374;11.586;2023-09-19T10:50:49;4.07;;;1.88;;
47251;SDS011;32991;51.374;11.586;2023-09-19T10:53:20;7.18;;;1.90;;
47251;SDS011;32991;51.374;11.586;2023-09-19T10:55:48;4.22;;;1.83;;
47251;SDS011;32991;51.374;11.586;2023-09-19T10:58:27;5.57;;;1.63;;
47251;SDS011;32991;51.374;11.586;2023-09-19T11:01:04;4.55;;;1.77;;
47251;SDS011;32991;51.374;11.586;2023-09-19T11:03:39;6.65;;;1.60;;
47251;SDS011;32991;51.374;11.586;2023-09-19T11:06:12;6.15;;;1.70;;
47251;SDS011;32991;51.374;11.586;2023-09-19T11:08:52;3.15;;;1.58;;
47251;SDS011;32991;51.374;11.586;2023-09-19T11:11:42;4.32;;;1.80;;
47251;SDS011;32991;51.374;11.586;2023-09-19T11:30:37;5.90;;;1.80;;
47251;SDS011;32991;51.374;11.586;2023-09-19T11:36:08;5.05;;;1.50;;
47251;SDS011;32991;51.374;11.586;2023-09-19T11:43:48;30.70;;;2.78;;
47251;SDS011;32991;51.374;11.586;2023-09-19T11:46:21;2.90;;;1.48;;
47251;SDS011;32991;51.374;11.586;2023-09-19T11:48:48;3.83;;;1.73;;
47251;SDS011;32991;51.374;11.586;2023-09-19T11:51:17;4.28;;;1.90;;
47251;SDS011;32991;51.374;11.586;2023-09-19T11:53:49;5.47;;;1.67;;
47251;SDS011;32991;51.374;11.586;2023-09-19T11:56:17;2.75;;;1.40;;
47251;SDS011;32991;51.374;11.586;2023-09-19T11:58:50;2.83;;;1.42;;
47251;SDS011;32991;51.374;11.586;2023-09-19T12:01:21;4.47;;;1.67;;
47251;SDS011;32991;51.374;11.586;2023-09-19T12:03:54;2.95;;;1.77;;
47251;SDS011;32991;51.374;11.586;2023-09-19T12:06:24;5.10;;;1.95;;
47251;SDS011;32991;51.374;11.586;2023-09-19T12:08:52;4.30;;;1.70;;
47251;SDS011;32991;51.374;11.586;2023-09-19T12:11:21;3.40;;;1.65;;
47251;SDS011;32991;51.374;11.586;2023-09-19T12:13:49;4.00;;;2.05;;
47251;SDS011;32991;51.374;11.586;2023-09-19T12:16:17;2.60;;;1.77;;
47251;SDS011;32991;51.374;11.586;2023-09-19T12:18:48;4.13;;;1.83;;
47251;SDS011;32991;51.374;11.586;2023-09-19T12:21:23;3.80;;;1.77;;
47251;SDS011;32991;51.374;11.586;2023-09-19T12:23:57;2.80;;;1.80;;
47251;SDS011;32991;51.374;11.586;2023-09-19T12:26:44;1.95;;;1.65;;
47251;SDS011;32991;51.374;11.586;2023-09-19T12:29:14;5.93;;;2.00;;
47251;SDS011;32991;51.374;11.586;2023-09-19T12:31:51;2.92;;;2.00;;
47251;SDS011;32991;51.374;11.586;2023-09-19T12:34:27;9.88;;;2.50;;
47251;SDS011;32991;51.374;11.586;2023-09-19T12:37:29;3.30;;;1.88;;
47251;SDS011;32991;51.374;11.586;2023-09-19T12:39:49;3.33;;;2.17;;
47251;SDS011;32991;51.374;11.586;2023-09-19T12:42:19;3.45;;;2.22;;
47251;SDS011;32991;51.374;11.586;2023-09-19T12:44:50;3.53;;;1.92;;
47251;SDS011;32991;51.374;11.586;2023-09-19T12:47:27;3.33;;;1.67;;
47251;SDS011;32991;51.374;11.586;2023-09-19T12:50:08;4.00;;;1.90;;
47251;SDS011;32991;51.374;11.586;2023-09-19T12:52:41;2.00;;;1.77;;
47251;SDS011;32991;51.374;11.586;2023-09-19T12:55:19;2.78;;;1.77;;
47251;SDS011;32991;51.374;11.586;2023-09-19T12:58:08;2.97;;;1.73;;
47251;SDS011;32991;51.374;11.586;2023-09-19T13:00:45;6.20;;;2.38;;
47251;SDS011;32991;51.374;11.586;2023-09-19T13:03:13;3.90;;;1.95;;
47251;SDS011;32991;51.374;11.586;2023-09-19T13:08:23;3.67;;;1.92;;
47251;SDS011;32991;51.374;11.586;2023-09-19T13:11:05;3.35;;;1.90;;
47251;SDS011;32991;51.374;11.586;2023-09-19T13:13:37;5.55;;;2.17;;
47251;SDS011;32991;51.374;11.586;2023-09-19T13:16:04;2.92;;;2.10;;
47251;SDS011;32991;51.374;11.586;2023-09-19T13:18:42;4.93;;;2.22;;
47251;SDS011;32991;51.374;11.586;2023-09-19T13:21:13;2.60;;;1.63;;
47251;SDS011;32991;51.374;11.586;2023-09-19T13:23:50;3.05;;;1.90;;
47251;SDS011;32991;51.374;11.586;2023-09-19T13:26:17;4.00;;;2.47;;
47251;SDS011;32991;51.374;11.586;2023-09-19T13:28:44;5.75;;;2.22;;
47251;SDS011;32991;51.374;11.586;2023-09-19T13:31:11;3.03;;;2.00;;
47251;SDS011;32991;51.374;11.586;2023-09-19T13:33:44;2.67;;;2.10;;
47251;SDS011;32991;51.374;11.586;2023-09-19T13:36:14;4.80;;;2.13;;
47251;SDS011;32991;51.374;11.586;2023-09-19T13:38:41;5.43;;;2.40;;
47251;SDS011;32991;51.374;11.586;2023-09-19T13:41:13;4.17;;;2.20;;
47251;SDS011;32991;51.374;11.586;2023-09-19T13:43:40;5.82;;;2.45;;
47251;SDS011;32991;51.374;11.586;2023-09-19T13:46:07;4.72;;;2.28;;
47251;SDS011;32991;51.374;11.586;2023-09-19T13:48:34;4.00;;;2.00;;
47251;SDS011;32991;51.374;11.586;2023-09-19T13:51:02;4.10;;;2.40;;
47251;SDS011;32991;51.374;11.586;2023-09-19T13:53:29;5.13;;;2.30;;
47251;SDS011;32991;51.374;11.586;2023-09-19T13:55:56;4.60;;;2.03;;
47251;SDS011;32991;51.374;11.586;2023-09-19T13:58:23;4.70;;;2.42;;
47251;SDS011;32991;51.374;11.586;2023-09-19T14:00:50;3.92;;;2.15;;
47251;SDS011;32991;51.374;11.586;2023-09-19T14:03:17;4.40;;;2.15;;
47251;SDS011;32991;51.374;11.586;2023-09-19T14:05:44;6.25;;;2.30;;
47251;SDS011;32991;51.374;11.586;2023-09-19T14:08:12;3.38;;;2.20;;
47251;SDS011;32991;51.374;11.586;2023-09-19T14:10:39;3.53;;;2.13;;
47251;SDS011;32991;51.374;11.586;2023-09-19T14:13:06;4.10;;;2.15;;
47251;SDS011;32991;51.374;11.586;2023-09-19T14:15:32;3.00;;;2.05;;
47251;SDS011;32991;51.374;11.586;2023-09-19T14:18:01;6.63;;;2.47;;
47251;SDS011;32991;51.374;11.586;2023-09-19T14:20:28;3.97;;;2.38;;
47251;SDS011;32991;51.374;11.586;2023-09-19T14:22:55;4.70;;;2.10;;
47251;SDS011;32991;51.374;11.586;2023-09-19T14:25:22;3.33;;;2.20;;
47251;SDS011;32991;51.374;11.586;2023-09-19T14:27:50;6.57;;;2.28;;
47251;SDS011;32991;51.374;11.586;2023-09-19T14:30:16;4.75;;;2.50;;
47251;SDS011;32991;51.374;11.586;2023-09-19T14:32:43;4.30;;;2.15;;
47251;SDS011;32991;51.374;11.586;2023-09-19T14:35:09;7.78;;;2.53;;
47251;SDS011;32991;51.374;11.586;2023-09-19T14:37:37;6.72;;;2.40;;
47251;SDS011;32991;51.374;11.586;2023-09-19T14:40:06;4.22;;;2.15;;
47251;SDS011;32991;51.374;11.586;2023-09-19T14:42:36;6.50;;;2.65;;
47251;SDS011;32991;51.374;11.586;2023-09-19T14:45:04;3.70;;;2.38;;
47251;SDS011;32991;51.374;11.586;2023-09-19T14:47:32;6.70;;;2.50;;
47251;SDS011;32991;51.374;11.586;2023-09-19T14:50:02;6.47;;;2.83;;
47251;SDS011;32991;51.374;11.586;2023-09-19T14:52:33;8.93;;;2.80;;
47251;SDS011;32991;51.374;11.586;2023-09-19T14:55:02;6.90;;;2.53;;
47251;SDS011;32991;51.374;11.586;2023-09-19T14:57:29;6.13;;;2.58;;
47251;SDS011;32991;51.374;11.586;2023-09-19T14:59:56;8.55;;;2.58;;
47251;SDS011;32991;51.374;11.586;2023-09-19T15:02:22;5.68;;;2.55;;
47251;SDS011;32991;51.374;11.586;2023-09-19T15:04:49;4.38;;;2.00;;
47251;SDS011;32991;51.374;11.586;2023-09-19T15:07:17;2.85;;;2.00;;
47251;SDS011;32991;51.374;11.586;2023-09-19T15:09:44;5.95;;;2.60;;
47251;SDS011;32991;51.374;11.586;2023-09-19T15:12:11;5.28;;;2.30;;
47251;SDS011;32991;51.374;11.586;2023-09-19T15:14:40;7.97;;;2.67;;
47251;SDS011;32991;51.374;11.586;2023-09-19T15:17:08;4.53;;;2.55;;
47251;SDS011;32991;51.374;11.586;2023-09-19T15:19:35;4.25;;;2.25;;
47251;SDS011;32991;51.374;11.586;2023-09-19T15:22:04;2.85;;;2.05;;
47251;SDS011;32991;51.374;11.586;2023-09-19T15:24:31;3.53;;;1.98;;
47251;SDS011;32991;51.374;11.586;2023-09-19T15:26:58;5.95;;;2.05;;
47251;SDS011;32991;51.374;11.586;2023-09-19T15:29:25;5.50;;;2.47;;
47251;SDS011;32991;51.374;11.586;2023-09-19T15:31:51;5.03;;;2.25;;
47251;SDS011;32991;51.374;11.586;2023-09-19T15:34:18;4.68;;;2.20;;